Time;durP1;ratioP1;P1;durP2;ratioP2;P2;SDS_P1;SDS_P2;PMS_P1;PMS_P2;Temp;Humidity;BMP_temperature;BMP_pressure;BME280_temperature;BME280_humidity;BME280_pressure;Samples;Min_cycle;Max_cycle;Signal;HPM_P1;HPM_P2
2023/05/24 00:00:52;;;;;;;1.80;1.70;;;;;;;13.75;100.00;100148.67;181156;1265;43545;-65
2023/05/24 00:05:01;;;;;;;2.50;1.40;;;;;;;13.61;100.00;100145.71;180954;1266;43138;-65
2023/05/24 00:09:31;;;;;;;2.60;1.60;;;;;;;13.42;100.00;100153.61;181007;1265;43087;-65
2023/05/24 00:13:34;;;;;;;4.50;1.70;;;;;;;13.28;100.00;100156.73;181059;1267;58590;-65
2023/05/24 00:17:39;;;;;;;2.30;1.20;;;;;;;13.15;100.00;100169.34;181041;1265;43051;-65
2023/05/24 00:21:44;;;;;;;5.10;1.40;;;;;;;12.97;100.00;100176.27;181054;1264;43774;-65
2023/05/24 00:25:47;;;;;;;5.40;1.30;;;;;;;12.82;100.00;100185.92;181063;1264;43846;-65
2023/05/24 00:29:50;;;;;;;4.70;1.10;;;;;;;12.76;100.00;100175.98;181122;1264;43300;-65
2023/05/24 00:33:53;;;;;;;2.20;1.60;;;;;;;12.69;100.00;100184.04;181072;1265;59232;-65
2023/05/24 00:37:56;;;;;;;4.30;1.60;;;;;;;12.68;100.00;100191.27;181142;1265;43523;-65
2023/05/24 00:41:58;;;;;;;1.90;1.60;;;;;;;12.47;100.00;100194.60;181098;1265;43653;-66
2023/05/24 00:46:16;;;;;;;3.10;2.30;;;;;;;12.24;100.00;100201.29;181003;1267;44226;-65
2023/05/24 00:50:20;;;;;;;5.40;3.20;;;;;;;12.16;100.00;100210.14;180992;1265;43738;-65
2023/05/24 00:54:25;;;;;;;6.00;3.50;;;;;;;12.14;100.00;100219.75;181092;1265;59184;-65
2023/05/24 00:58:31;;;;;;;4.20;3.20;;;;;;;12.12;100.00;100222.46;181031;1267;43633;-65
2023/05/24 01:02:34;;;;;;;3.70;2.90;;;;;;;12.08;100.00;100228.27;181145;1264;43088;-64
2023/05/24 01:07:12;;;;;;;8.30;6.90;;;;;;;11.98;100.00;100228.05;181045;1265;43626;-64
2023/05/24 01:11:44;;;;;;;6.50;4.80;;;;;;;11.79;100.00;100236.28;181158;1264;43119;-65
2023/05/24 01:16:09;;;;;;;6.30;5.60;;;;;;;11.63;100.00;100241.59;181006;1265;58174;-64
2023/05/24 01:20:16;;;;;;;17.50;5.10;;;;;;;11.56;100.00;100247.17;181020;1265;43730;-66
2023/05/24 01:24:52;;;;;;;7.20;4.80;;;;;;;11.50;100.00;100252.69;181022;1265;43163;-65
2023/05/24 01:28:55;;;;;;;13.50;7.50;;;;;;;11.58;100.00;100254.11;180969;1267;43936;-65
2023/05/24 01:33:23;;;;;;;7.00;4.40;;;;;;;11.57;100.00;100263.08;181021;1267;43412;-65
2023/05/24 01:37:26;;;;;;;7.60;5.70;;;;;;;11.52;100.00;100264.23;181051;1265;58630;-65
2023/05/24 01:41:40;;;;;;;11.20;6.00;;;;;;;11.59;100.00;100263.48;181132;1264;43729;-65
2023/05/24 01:46:17;;;;;;;10.50;6.20;;;;;;;11.61;100.00;100269.18;180959;1266;43080;-64
2023/05/24 01:50:25;;;;;;;9.60;6.80;;;;;;;11.64;100.00;100267.48;181031;1265;43675;-66
2023/05/24 01:54:33;;;;;;;8.70;7.10;;;;;;;11.62;100.00;100270.27;181025;1267;43011;-65
2023/05/24 01:58:38;;;;;;;7.60;6.10;;;;;;;11.66;100.00;100275.46;180987;1267;58387;-64
2023/05/24 02:02:41;;;;;;;14.40;7.90;;;;;;;11.71;100.00;100279.67;181063;1264;43756;-66
2023/05/24 02:06:50;;;;;;;9.70;6.70;;;;;;;11.74;100.00;100282.77;181083;1265;43565;-65
2023/05/24 02:10:53;;;;;;;14.10;8.10;;;;;;;11.71;100.00;100289.44;181048;1265;43975;-66
2023/05/24 02:14:56;;;;;;;8.10;5.90;;;;;;;11.75;100.00;100296.56;181123;1265;43053;-65
2023/05/24 02:18:58;;;;;;;8.00;5.70;;;;;;;11.79;100.00;100297.77;181130;1265;58238;-64
2023/05/24 02:23:03;;;;;;;7.10;5.30;;;;;;;11.83;100.00;100296.77;181126;1264;43190;-65
2023/05/24 02:27:07;;;;;;;8.40;5.90;;;;;;;11.82;100.00;100299.48;181146;1264;43670;-65
2023/05/24 02:31:09;;;;;;;6.50;4.40;;;;;;;11.76;100.00;100299.84;181074;1265;43881;-63
2023/05/24 02:35:12;;;;;;;6.60;5.80;;;;;;;11.70;100.00;100303.52;181064;1264;43083;-63
2023/05/24 02:39:15;;;;;;;7.40;6.40;;;;;;;11.67;100.00;100303.45;181019;1265;58548;-64
2023/05/24 02:43:18;;;;;;;4.90;4.30;;;;;;;11.70;100.00;100305.81;181101;1265;43765;-64
2023/05/24 02:47:21;;;;;;;13.00;5.20;;;;;;;11.68;100.00;100306.40;181014;1267;43423;-65
2023/05/24 02:51:24;;;;;;;4.40;4.00;;;;;;;11.68;100.00;100307.81;181048;1264;43724;-64
2023/05/24 02:55:28;;;;;;;6.00;4.60;;;;;;;11.75;100.00;100301.74;181075;1267;42999;-65
2023/05/24 02:59:32;;;;;;;4.60;4.20;;;;;;;11.81;100.00;100304.02;181045;1265;58032;-65
2023/05/24 03:03:35;;;;;;;5.30;3.70;;;;;;;11.84;100.00;100306.42;181073;1267;43073;-65
2023/05/24 03:07:38;;;;;;;7.40;3.90;;;;;;;11.83;100.00;100307.90;181129;1265;43663;-65
2023/05/24 03:11:41;;;;;;;7.00;5.00;;;;;;;11.85;100.00;100313.30;181009;1267;43314;-65
2023/05/24 03:15:44;;;;;;;5.30;4.80;;;;;;;11.92;100.00;100317.11;180998;1267;43079;-66
2023/05/24 03:19:47;;;;;;;3.90;2.90;;;;;;;12.00;100.00;100322.12;181015;1265;58190;-64
2023/05/24 03:23:50;;;;;;;11.00;3.90;;;;;;;11.94;100.00;100324.97;181049;1264;43707;-65
2023/05/24 03:28:03;;;;;;;4.10;3.70;;;;;;;11.85;100.00;100325.14;181032;1265;43760;-64
2023/05/24 03:32:06;;;;;;;5.60;3.20;;;;;;;11.81;100.00;100333.70;181100;1264;43863;-64
2023/05/24 03:36:09;;;;;;;2.50;2.20;;;;;;;11.76;100.00;100338.79;181133;1265;43433;-64
2023/05/24 03:40:12;;;;;;;4.60;2.80;;;;;;;11.77;100.00;100340.05;181041;1265;58253;-64
2023/05/24 03:44:15;;;;;;;6.90;3.70;;;;;;;11.77;100.00;100340.83;181138;1265;43715;-64
2023/05/24 03:48:19;;;;;;;6.00;4.80;;;;;;;11.81;100.00;100342.54;181107;1265;43023;-64
2023/05/24 03:52:22;;;;;;;7.40;6.60;;;;;;;11.74;100.00;100346.92;181001;1265;43538;-65
2023/05/24 03:56:25;;;;;;;14.50;9.10;;;;;;;11.63;100.00;100348.39;181060;1265;43877;-65
2023/05/24 04:00:28;;;;;;;13.40;7.80;;;;;;;11.50;100.00;100343.04;180998;1265;58443;-64
2023/05/24 04:04:32;;;;;;;14.20;9.00;;;;;;;11.46;100.00;100343.07;181043;1265;43599;-64
2023/05/24 04:08:34;;;;;;;16.20;10.10;;;;;;;11.38;100.00;100345.54;181077;1265;44110;-63
2023/05/24 04:12:39;;;;;;;12.70;7.90;;;;;;;11.43;100.00;100351.45;181115;1265;43948;-64
2023/05/24 04:16:43;;;;;;;11.00;9.00;;;;;;;11.42;100.00;100358.13;180934;1267;43462;-64
2023/05/24 04:20:46;;;;;;;19.20;11.30;;;;;;;11.35;100.00;100366.90;181010;1265;58255;-64
2023/05/24 04:24:49;;;;;;;10.30;8.50;;;;;;;11.45;100.00;100368.38;181118;1265;43769;-65
2023/05/24 04:28:53;;;;;;;17.40;11.10;;;;;;;11.43;100.00;100376.50;181080;1267;43092;-65
2023/05/24 04:32:56;;;;;;;8.70;7.90;;;;;;;11.46;100.00;100375.73;180965;1265;43118;-64
2023/05/24 04:36:59;;;;;;;10.30;8.10;;;;;;;11.51;100.00;100385.46;181113;1265;43119;-64
2023/05/24 04:41:02;;;;;;;16.60;8.00;;;;;;;11.50;100.00;100390.51;181113;1265;58024;-64
2023/05/24 04:45:06;;;;;;;15.90;9.10;;;;;;;11.52;100.00;100393.19;181086;1265;43106;-65
2023/05/24 04:49:08;;;;;;;17.30;8.20;;;;;;;11.51;100.00;100399.98;181139;1265;43649;-63
2023/05/24 04:53:12;;;;;;;16.90;8.20;;;;;;;11.46;100.00;100410.02;181090;1265;43747;-62
2023/05/24 04:57:44;;;;;;;9.80;7.50;;;;;;;11.45;100.00;100415.79;180985;1265;163698;-63
2023/05/24 05:01:47;;;;;;;13.70;8.60;;;;;;;11.36;100.00;100418.46;181149;1264;57956;-62
2023/05/24 05:05:50;;;;;;;15.00;7.10;;;;;;;11.44;100.00;100425.63;181093;1265;43645;-63
2023/05/24 05:09:53;;;;;;;12.20;7.00;;;;;;;11.46;100.00;100429.73;180949;1268;43616;-61
2023/05/24 05:13:56;;;;;;;10.30;8.30;;;;;;;11.42;100.00;100431.96;181111;1265;43092;-62
2023/05/24 05:17:59;;;;;;;12.20;6.90;;;;;;;11.43;100.00;100435.77;181090;1265;43557;-63
2023/05/24 05:22:02;;;;;;;11.50;5.90;;;;;;;11.44;100.00;100437.65;181089;1265;58682;-62
2023/05/24 05:26:06;;;;;;;8.60;7.10;;;;;;;11.45;100.00;100439.88;181057;1267;43114;-62
2023/05/24 05:30:09;;;;;;;16.80;7.60;;;;;;;11.44;100.00;100441.39;181068;1265;43451;-63
2023/05/24 05:34:12;;;;;;;26.60;7.90;;;;;;;11.47;100.00;100445.59;181172;1265;43976;-62
2023/05/24 05:38:15;;;;;;;13.10;7.70;;;;;;;11.53;100.00;100449.86;181100;1265;43010;-62
2023/05/24 05:42:18;;;;;;;20.50;8.90;;;;;;;11.57;100.00;100446.89;181134;1264;57921;-62
2023/05/24 05:46:21;;;;;;;21.80;9.40;;;;;;;11.65;100.00;100448.92;181129;1265;43525;-62
2023/05/24 05:50:24;;;;;;;9.00;7.40;;;;;;;11.61;100.00;100459.18;181120;1265;43108;-63
2023/05/24 05:54:27;;;;;;;16.60;9.60;;;;;;;11.45;100.00;100454.81;181071;1267;43555;-62
2023/05/24 05:58:30;;;;;;;15.20;7.80;;;;;;;11.40;100.00;100460.75;181092;1265;42972;-63
2023/05/24 06:02:33;;;;;;;13.80;9.60;;;;;;;11.43;100.00;100460.52;181104;1265;58139;-62
2023/05/24 06:06:36;;;;;;;17.60;8.80;;;;;;;11.47;100.00;100457.11;181084;1264;43638;-63
2023/05/24 06:10:39;;;;;;;25.80;11.60;;;;;;;11.48;100.00;100460.77;181037;1265;43060;-62
2023/05/24 06:14:43;;;;;;;16.90;10.50;;;;;;;11.49;100.00;100462.98;181089;1265;43663;-62
2023/05/24 06:18:46;;;;;;;23.30;12.50;;;;;;;11.45;100.00;100461.73;181119;1266;43491;-62
2023/05/24 06:23:06;;;;;;;25.60;11.00;;;;;;;11.43;100.00;100470.61;181070;1265;57457;-62
2023/05/24 06:27:09;;;;;;;28.10;12.80;;;;;;;11.41;100.00;100477.35;181123;1265;43610;-62
2023/05/24 06:31:12;;;;;;;17.50;10.30;;;;;;;11.48;100.00;100482.98;181148;1265;43070;-63
2023/05/24 06:35:15;;;;;;;26.00;10.50;;;;;;;11.57;100.00;100482.29;181100;1264;43749;-62
2023/05/24 06:39:18;;;;;;;26.50;10.90;;;;;;;11.59;100.00;100488.16;181122;1265;43071;-63
2023/05/24 06:43:27;;;;;;;14.90;8.60;;;;;;;11.70;100.00;100488.29;181147;1264;57749;-63
2023/05/24 06:47:30;;;;;;;9.60;6.30;;;;;;;11.65;100.00;100490.35;181115;1265;43488;-63
2023/05/24 06:51:36;;;;;;;7.70;5.80;;;;;;;11.81;100.00;100493.21;181082;1265;43159;-62
2023/05/24 06:55:39;;;;;;;9.90;6.90;;;;;;;12.01;100.00;100502.63;181120;1265;43783;-63
2023/05/24 06:59:42;;;;;;;19.30;8.30;;;;;;;12.08;100.00;100500.95;181079;1265;43168;-63
2023/05/24 07:03:45;;;;;;;11.70;8.60;;;;;;;11.88;100.00;100514.01;181098;1265;58395;-62
2023/05/24 07:07:48;;;;;;;18.50;10.00;;;;;;;11.83;100.00;100518.98;181069;1265;43591;-63
2023/05/24 07:11:52;;;;;;;18.70;10.80;;;;;;;11.90;100.00;100524.00;181052;1267;43502;-62
2023/05/24 07:15:54;;;;;;;14.30;9.30;;;;;;;11.75;100.00;100533.02;180969;1265;43944;-63
2023/05/24 07:20:00;;;;;;;19.40;10.70;;;;;;;11.84;100.00;100534.21;181111;1265;43052;-63
2023/05/24 07:24:03;;;;;;;18.40;10.80;;;;;;;11.94;100.00;100534.27;181094;1265;57377;-62
2023/05/24 07:28:06;;;;;;;22.60;11.80;;;;;;;11.87;100.00;100531.50;181078;1265;44036;-63
2023/05/24 07:32:09;;;;;;;12.10;9.30;;;;;;;12.01;100.00;100546.67;181094;1268;43279;-63
2023/05/24 07:36:14;;;;;;;11.80;8.10;;;;;;;12.05;100.00;100551.20;181099;1265;43118;-62
2023/05/24 07:40:17;;;;;;;10.20;7.90;;;;;;;12.18;100.00;100558.42;181005;1267;43101;-63
2023/05/24 07:44:21;;;;;;;19.90;10.20;;;;;;;12.43;100.00;100559.59;181148;1265;59021;-63
2023/05/24 07:48:23;;;;;;;15.20;10.70;;;;;;;12.76;100.00;100565.14;181068;1266;43724;-63
2023/05/24 07:52:26;;;;;;;25.50;10.80;;;;;;;12.89;100.00;100568.48;181139;1266;43925;-63
2023/05/24 07:56:30;;;;;;;10.80;8.40;;;;;;;12.88;100.00;100569.20;181074;1265;43812;-63
2023/05/24 08:00:34;;;;;;;27.30;9.90;;;;;;;12.97;100.00;100569.91;181190;1264;43901;-64
2023/05/24 08:04:37;;;;;;;12.50;9.20;;;;;;;13.25;100.00;100569.05;181056;1265;58293;-63
2023/05/24 08:08:41;;;;;;;18.20;9.50;;;;;;;13.40;100.00;100565.96;181084;1267;43159;-62
2023/05/24 08:12:44;;;;;;;16.50;10.30;;;;;;;13.49;100.00;100568.38;181097;1266;43469;-63
2023/05/24 08:16:47;;;;;;;14.60;7.60;;;;;;;13.47;100.00;100572.45;181057;1265;43387;-63
2023/05/24 08:20:51;;;;;;;15.00;8.70;;;;;;;13.38;100.00;100579.86;181064;1265;43826;-62
2023/05/24 08:24:54;;;;;;;10.30;6.60;;;;;;;13.34;99.89;100576.64;180986;1267;57383;-63
2023/05/24 08:28:57;;;;;;;12.70;8.40;;;;;;;13.18;99.23;100580.02;181062;1266;43125;-63
2023/05/24 08:33:00;;;;;;;15.30;8.60;;;;;;;13.01;99.71;100578.77;180956;1267;43048;-63
2023/05/24 08:37:03;;;;;;;11.00;8.10;;;;;;;13.08;99.90;100583.73;181119;1265;43721;-62
2023/05/24 08:41:07;;;;;;;22.20;7.90;;;;;;;13.09;99.86;100586.49;181139;1265;43878;-63
2023/05/24 08:45:11;;;;;;;22.20;9.00;;;;;;;13.24;99.66;100591.74;181093;1265;58246;-64
2023/05/24 08:49:15;;;;;;;11.10;7.90;;;;;;;13.43;99.28;100595.11;181078;1265;43467;-62
2023/05/24 08:53:20;;;;;;;12.10;9.60;;;;;;;13.64;99.95;100592.73;181125;1265;43700;-63
2023/05/24 08:57:26;;;;;;;14.50;8.90;;;;;;;13.93;97.19;100594.54;180968;1268;43061;-63
2023/05/24 09:01:30;;;;;;;14.60;7.60;;;;;;;14.24;95.11;100592.78;181025;1267;43083;-63
2023/05/24 09:05:36;;;;;;;18.20;8.00;;;;;;;14.50;91.29;100597.96;181124;1267;58042;-63
2023/05/24 09:09:48;;;;;;;12.60;7.90;;;;;;;14.83;91.59;100600.20;181029;1266;43392;-63
2023/05/24 09:13:54;;;;;;;10.40;7.30;;;;;;;14.88;88.54;100606.08;181079;1267;43454;-62
2023/05/24 09:17:57;;;;;;;14.00;8.50;;;;;;;15.11;88.87;100605.27;181104;1267;43914;-63
2023/05/24 09:22:00;;;;;;;10.40;6.70;;;;;;;15.46;85.04;100602.64;181107;1265;43152;-62
2023/05/24 09:26:08;;;;;;;22.50;8.70;;;;;;;15.58;82.76;100606.69;181031;1265;58444;-62
2023/05/24 09:30:11;;;;;;;17.50;6.20;;;;;;;15.60;83.40;100613.79;181057;1267;43843;-62
2023/05/24 09:34:18;;;;;;;17.80;6.80;;;;;;;15.64;84.12;100610.71;181104;1265;43672;-63
2023/05/24 09:38:21;;;;;;;8.80;5.70;;;;;;;15.52;81.62;100617.08;181171;1267;43100;-62
2023/05/24 09:42:26;;;;;;;10.30;6.60;;;;;;;15.52;80.16;100614.71;181052;1267;43770;-63
2023/05/24 09:46:37;;;;;;;15.00;5.50;;;;;;;15.67;83.20;100614.00;181069;1266;58050;-63
2023/05/24 09:51:10;;;;;;;10.60;4.50;;;;;;;15.68;81.19;100614.95;181024;1267;43507;-63
2023/05/24 09:55:18;;;;;;;6.40;4.70;;;;;;;15.92;81.05;100609.64;181087;1267;43028;-63
2023/05/24 09:59:23;;;;;;;11.10;6.80;;;;;;;15.93;78.97;100609.02;180985;1266;43154;-63
2023/05/24 10:03:26;;;;;;;12.60;5.90;;;;;;;15.87;79.29;100611.39;181105;1267;43771;-62
2023/05/24 10:07:30;;;;;;;11.00;5.20;;;;;;;15.83;79.32;100614.80;181101;1266;58140;-63
2023/05/24 10:11:37;;;;;;;8.40;4.70;;;;;;;15.89;79.87;100615.42;181154;1267;43648;-63
2023/05/24 10:15:40;;;;;;;7.70;4.40;;;;;;;16.18;80.62;100617.09;181054;1266;43295;-63
2023/05/24 10:19:43;;;;;;;6.60;5.40;;;;;;;16.23;76.91;100609.05;181065;1266;43741;-63
2023/05/24 10:23:50;;;;;;;10.80;5.30;;;;;;;16.23;76.19;100606.55;181153;1265;43665;-63
2023/05/24 10:27:57;;;;;;;9.30;6.10;;;;;;;16.43;77.10;100608.70;181200;1267;58039;-63
2023/05/24 10:32:01;;;;;;;18.50;5.20;;;;;;;16.57;75.30;100608.84;181149;1265;43175;-62
2023/05/24 10:36:06;;;;;;;10.30;4.80;;;;;;;16.70;73.75;100612.91;181132;1267;43018;-62
2023/05/24 10:40:19;;;;;;;13.10;5.90;;;;;;;16.91;74.63;100614.52;181059;1265;43631;-63
2023/05/24 10:44:46;;;;;;;8.00;5.50;;;;;;;16.96;73.48;100613.35;181072;1265;43761;-63
2023/05/24 10:49:00;;;;;;;10.10;5.60;;;;;;;17.01;73.94;100613.69;181084;1265;57592;-63
2023/05/24 10:53:17;;;;;;;6.80;5.00;;;;;;;17.05;75.55;100620.09;181166;1264;43110;-63
2023/05/24 10:57:23;;;;;;;13.60;6.00;;;;;;;16.94;74.80;100624.96;181149;1265;43091;-62
2023/05/24 11:01:32;;;;;;;16.40;6.50;;;;;;;16.67;74.01;100621.46;181130;1265;43049;-63
2023/05/24 11:05:56;;;;;;;10.90;5.60;;;;;;;16.59;76.08;100619.94;181057;1266;43711;-63
2023/05/24 11:10:05;;;;;;;8.00;5.00;;;;;;;16.65;73.98;100623.48;181061;1266;58372;-63
2023/05/24 11:14:09;;;;;;;8.50;4.00;;;;;;;16.84;72.34;100619.68;181066;1265;43834;-63
2023/05/24 11:18:12;;;;;;;21.90;7.20;;;;;;;17.01;70.10;100619.08;181103;1267;43108;-63
2023/05/24 11:22:16;;;;;;;20.80;5.90;;;;;;;17.26;73.77;100615.63;181067;1265;43171;-62
2023/05/24 11:26:20;;;;;;;6.40;4.00;;;;;;;17.47;74.15;100605.11;181137;1265;43415;-63
2023/05/24 11:30:27;;;;;;;11.10;5.20;;;;;;;17.48;73.07;100607.98;181101;1266;58021;-62
2023/05/24 11:34:31;;;;;;;11.70;5.40;;;;;;;17.74;72.51;100608.42;181055;1266;43099;-63
2023/05/24 11:38:35;;;;;;;13.50;5.70;;;;;;;18.00;71.87;100610.89;181044;1265;43672;-62
2023/05/24 11:42:38;;;;;;;8.90;5.60;;;;;;;18.12;69.69;100609.42;181131;1265;43418;-63
2023/05/24 11:46:45;;;;;;;9.30;5.50;;;;;;;18.25;66.80;100609.83;181069;1265;43176;-63
2023/05/24 11:51:29;;;;;;;6.90;4.70;;;;;;;18.27;66.57;100608.88;181109;1265;59710;-63
2023/05/24 11:55:32;;;;;;;8.50;4.60;;;;;;;18.38;67.80;100597.77;181124;1265;43712;-63
2023/05/24 11:59:36;;;;;;;6.60;4.70;;;;;;;18.36;69.75;100601.75;181112;1267;43702;-63
2023/05/24 12:03:39;;;;;;;17.30;5.10;;;;;;;18.21;68.12;100604.81;181007;1267;43745;-62
2023/05/24 12:07:47;;;;;;;10.50;5.30;;;;;;;17.97;69.51;100600.25;180987;1267;43389;-62
2023/05/24 12:11:51;;;;;;;9.30;5.30;;;;;;;18.04;70.93;100599.50;181038;1265;58069;-62
2023/05/24 12:15:55;;;;;;;16.80;6.60;;;;;;;18.23;70.57;100603.16;180989;1267;43567;-62
2023/05/24 12:20:01;;;;;;;6.70;4.80;;;;;;;18.51;70.69;100594.43;180974;1264;43136;-62
2023/05/24 12:24:09;;;;;;;6.50;4.10;;;;;;;18.60;68.20;100600.58;181111;1265;43112;-63
2023/05/24 12:28:12;;;;;;;7.80;4.70;;;;;;;18.79;67.71;100595.98;181060;1266;43016;-62
2023/05/24 12:32:16;;;;;;;11.10;5.90;;;;;;;18.67;65.71;100608.75;181022;1265;59542;-62
2023/05/24 12:36:19;;;;;;;11.30;5.20;;;;;;;18.37;64.77;100612.13;181150;1264;43855;-62
2023/05/24 12:40:22;;;;;;;8.40;5.20;;;;;;;18.19;64.37;100612.23;181158;1265;43075;-63
2023/05/24 12:44:26;;;;;;;9.50;6.40;;;;;;;18.06;67.92;100610.30;181170;1265;43772;-62
2023/05/24 12:48:34;;;;;;;16.80;5.00;;;;;;;17.94;64.27;100611.67;181120;1264;43034;-62
2023/05/24 12:52:37;;;;;;;13.80;5.50;;;;;;;18.00;65.60;100609.58;181036;1265;58009;-62
2023/05/24 12:56:40;;;;;;;9.60;5.60;;;;;;;18.12;67.76;100607.55;181160;1265;43034;-61
2023/05/24 13:00:46;;;;;;;7.80;5.40;;;;;;;18.25;63.79;100604.89;181169;1264;43695;-62
2023/05/24 13:04:50;;;;;;;9.70;4.80;;;;;;;18.21;65.61;100606.84;181111;1264;43098;-62
2023/05/24 13:08:54;;;;;;;7.80;4.70;;;;;;;18.31;68.31;100604.52;181138;1265;43379;-63
2023/05/24 13:12:57;;;;;;;5.40;3.70;;;;;;;18.53;66.10;100603.55;181013;1267;58901;-62
2023/05/24 13:17:06;;;;;;;9.50;3.50;;;;;;;18.63;63.98;100601.65;181069;1265;43097;-62
2023/05/24 13:21:09;;;;;;;8.50;4.30;;;;;;;18.89;68.55;100602.40;181117;1265;42977;-62
2023/05/24 13:25:14;;;;;;;9.10;4.40;;;;;;;19.06;63.58;100599.11;181084;1265;43312;-59
2023/05/24 13:29:17;;;;;;;10.60;4.70;;;;;;;18.93;63.29;100596.04;181121;1265;43022;-58
2023/05/24 13:33:38;;;;;;;8.80;4.00;;;;;;;19.04;64.69;100593.75;181128;1265;58029;-59
2023/05/24 13:37:41;;;;;;;11.20;4.20;;;;;;;18.98;64.29;100600.30;181043;1265;43694;-59
2023/05/24 13:41:44;;;;;;;10.80;4.70;;;;;;;18.92;63.96;100598.67;181025;1267;43061;-59
2023/05/24 13:46:17;;;;;;;13.70;4.30;;;;;;;19.05;66.03;100594.77;181024;1265;43168;-59
2023/05/24 13:50:22;;;;;;;10.40;5.50;;;;;;;19.33;65.72;100592.27;181135;1265;43687;-59
2023/05/24 13:54:25;;;;;;;9.90;3.70;;;;;;;19.44;64.78;100593.71;181055;1265;58703;-59
2023/05/24 13:58:28;;;;;;;5.50;5.00;;;;;;;19.41;61.38;100594.10;181087;1264;43150;-59
2023/05/24 14:02:31;;;;;;;9.70;5.10;;;;;;;19.28;63.61;100595.92;181101;1265;43130;-59
2023/05/24 14:06:36;;;;;;;9.70;4.20;;;;;;;19.00;61.99;100597.39;181130;1265;43466;-59
2023/05/24 14:10:46;;;;;;;5.70;5.10;;;;;;;18.97;64.25;100596.50;181085;1265;43448;-59
2023/05/24 14:14:50;;;;;;;9.00;5.60;;;;;;;18.74;62.74;100595.80;181076;1265;58047;-59
2023/05/24 14:18:56;;;;;;;;;;;;;;;18.70;63.90;100589.65;180971;1264;43715;-59
2023/05/24 14:23:18;;;;;;;16.10;5.50;;;;;;;18.66;65.39;100590.70;181029;1265;43571;-59
2023/05/24 14:27:21;;;;;;;11.00;6.10;;;;;;;18.72;64.64;100587.19;181126;1265;43142;-59
2023/05/24 14:31:24;;;;;;;11.10;5.10;;;;;;;18.95;61.09;100589.23;181114;1265;43690;-59
2023/05/24 14:35:56;;;;;;;8.80;5.50;;;;;;;19.18;61.83;100593.92;181054;1268;58380;-59
2023/05/24 14:39:59;;;;;;;13.10;6.10;;;;;;;19.37;62.36;100596.35;181130;1265;43685;-59
2023/05/24 14:44:02;;;;;;;8.70;5.10;;;;;;;19.46;61.07;100590.05;181172;1265;43748;-59
2023/05/24 14:48:10;;;;;;;11.40;4.00;;;;;;;19.57;61.39;100590.46;181120;1265;43614;-60
2023/05/24 14:52:13;;;;;;;7.20;4.00;;;;;;;19.80;59.85;100583.72;181098;1264;43025;-60
2023/05/24 14:56:16;;;;;;;7.20;4.30;;;;;;;19.87;63.11;100580.16;181175;1264;58473;-60
2023/05/24 15:00:27;;;;;;;14.50;4.30;;;;;;;19.89;64.42;100580.13;181006;1265;43133;-62
2023/05/24 15:04:30;;;;;;;45.20;16.40;;;;;;;20.08;63.84;100581.10;181140;1265;43123;-63
2023/05/24 15:08:34;;;;;;;8.50;4.90;;;;;;;20.15;61.95;100585.58;181077;1267;44980;-63
2023/05/24 15:12:36;;;;;;;9.00;5.60;;;;;;;20.14;63.35;100589.70;181087;1267;43050;-63
2023/05/24 15:16:39;;;;;;;16.70;7.90;;;;;;;20.11;61.73;100586.34;181118;1264;60628;-63
2023/05/24 15:20:48;;;;;;;7.30;4.40;;;;;;;20.16;61.41;100588.73;181117;1265;43139;-63
2023/05/24 15:24:51;;;;;;;9.30;4.90;;;;;;;20.26;59.91;100585.89;181131;1265;43040;-64
2023/05/24 15:29:24;;;;;;;7.10;3.90;;;;;;;20.06;60.46;100595.02;181035;1265;43537;-64
2023/05/24 15:33:26;;;;;;;7.20;5.00;;;;;;;19.95;58.93;100591.88;181073;1266;43025;-64
2023/05/24 15:37:30;;;;;;;4.70;3.60;;;;;;;19.96;58.91;100588.14;181131;1264;58403;-63
2023/05/24 15:41:36;;;;;;;9.60;4.70;;;;;;;19.90;60.82;100585.98;181030;1264;43770;-63
2023/05/24 15:45:46;;;;;;;12.50;4.50;;;;;;;19.72;60.12;100594.96;181062;1265;43460;-64
2023/05/24 15:49:50;;;;;;;15.70;5.90;;;;;;;19.30;60.55;100594.92;181126;1265;43387;-64
2023/05/24 15:53:57;;;;;;;7.40;4.50;;;;;;;18.98;63.26;100595.84;181101;1266;43678;-64
2023/05/24 15:58:00;;;;;;;8.30;5.10;;;;;;;18.72;65.14;100596.55;181046;1265;58049;-64
2023/05/24 16:02:06;;;;;;;9.40;6.20;;;;;;;18.49;65.44;100596.55;181098;1265;43382;-64
2023/05/24 16:06:10;;;;;;;11.40;5.40;;;;;;;18.42;68.00;100597.58;181032;1265;43846;-64
2023/05/24 16:10:13;;;;;;;9.40;5.90;;;;;;;18.31;68.11;100598.35;181103;1264;43095;-63
2023/05/24 16:14:15;;;;;;;12.40;5.80;;;;;;;18.26;67.37;100601.28;181134;1265;43993;-63
2023/05/24 16:18:48;;;;;;;9.10;5.70;;;;;;;18.09;67.61;100601.16;181119;1266;58411;-63
2023/05/24 16:22:51;;;;;;;9.30;5.20;;;;;;;17.95;68.94;100606.20;181071;1264;43454;-64
2023/05/24 16:26:55;;;;;;;8.40;5.50;;;;;;;17.78;69.53;100604.17;181125;1265;43692;-63
2023/05/24 16:31:01;;;;;;;5.50;4.90;;;;;;;17.64;70.62;100607.17;181162;1265;43713;-64
2023/05/24 16:35:06;;;;;;;6.10;5.10;;;;;;;17.49;71.39;100608.19;181175;1264;43064;-63
2023/05/24 16:39:20;;;;;;;10.00;6.20;;;;;;;17.41;71.16;100613.64;181108;1264;58533;-63
2023/05/24 16:43:23;;;;;;;12.90;7.90;;;;;;;17.36;71.34;100620.67;181111;1265;44064;-64
2023/05/24 16:47:26;;;;;;;43.00;16.40;;;;;;;17.36;72.00;100630.20;181099;1265;43018;-64
2023/05/24 16:51:32;;;;;;;12.50;5.10;;;;;;;17.29;72.28;100630.89;181082;1265;43580;-63
2023/05/24 16:55:35;;;;;;;12.50;6.80;;;;;;;17.30;74.16;100629.32;180990;1265;177231;-64
2023/05/24 16:59:37;;;;;;;15.40;5.80;;;;;;;17.35;73.40;100628.70;181009;1266;58888;-64
2023/05/24 17:03:43;;;;;;;7.00;6.00;;;;;;;17.44;72.11;100629.34;181108;1265;43664;-64
2023/05/24 17:07:46;;;;;;;8.40;4.90;;;;;;;17.47;71.49;100634.80;181040;1266;43794;-63
2023/05/24 17:11:48;;;;;;;18.70;4.50;;;;;;;17.46;69.87;100640.76;181083;1265;43662;-64
2023/05/24 17:16:10;;;;;;;6.70;3.90;;;;;;;17.42;71.64;100641.50;181059;1265;43796;-63
2023/05/24 17:20:13;;;;;;;13.90;7.20;;;;;;;17.31;72.35;100649.66;181176;1264;58087;-62
2023/05/24 17:24:16;;;;;;;15.20;7.10;;;;;;;17.28;73.56;100651.19;181206;1264;43784;-62
2023/05/24 17:28:19;;;;;;;15.30;5.00;;;;;;;17.29;71.03;100649.38;181139;1264;43040;-63
2023/05/24 17:32:32;;;;;;;9.90;4.90;;;;;;;17.20;70.18;100652.99;181101;1265;43813;-63
2023/05/24 17:36:36;;;;;;;6.40;3.70;;;;;;;17.11;70.97;100658.96;181109;1265;43704;-62
2023/05/24 17:40:39;;;;;;;10.00;4.50;;;;;;;16.98;71.76;100663.04;181007;1265;58225;-62
2023/05/24 17:44:43;;;;;;;10.40;5.40;;;;;;;16.84;72.36;100668.59;180978;1265;43675;-62
2023/05/24 17:48:46;;;;;;;5.90;4.10;;;;;;;16.78;73.38;100667.04;181079;1264;43444;-62
2023/05/24 17:52:49;;;;;;;8.10;5.30;;;;;;;16.64;75.09;100671.59;181002;1265;43239;-62
2023/05/24 17:56:52;;;;;;;17.70;6.60;;;;;;;16.52;75.53;100676.13;181126;1264;43121;-62
2023/05/24 18:01:27;;;;;;;15.00;9.00;;;;;;;16.42;75.81;100678.88;181014;1264;57738;-63
2023/05/24 18:05:30;;;;;;;5.70;4.70;;;;;;;16.34;78.03;100686.16;181107;1264;43791;-62
2023/05/24 18:09:33;;;;;;;7.70;5.80;;;;;;;16.23;81.53;100691.55;181151;1264;43403;-62
2023/05/24 18:13:37;;;;;;;8.70;4.40;;;;;;;16.15;83.60;100688.55;180999;1265;43078;-63
2023/05/24 18:27:25;;;;;;;9.40;5.10;;;;;;;15.60;83.68;100709.13;175473;1265;90986;-60
2023/05/24 18:31:28;;;;;;;21.40;5.30;;;;;;;15.54;84.02;100716.04;181085;1267;43748;-60
2023/05/24 18:35:30;;;;;;;11.30;6.00;;;;;;;15.50;86.33;100723.59;181082;1265;43020;-60
2023/05/24 18:39:34;;;;;;;6.10;4.50;;;;;;;15.39;86.33;100726.66;181027;1267;43835;-59
2023/05/24 18:43:38;;;;;;;15.30;4.80;;;;;;;15.34;85.38;100730.48;180996;1267;59147;-62
2023/05/24 18:47:41;;;;;;;10.30;4.80;;;;;;;15.36;85.37;100738.52;180970;1265;43834;-61